Map

Track Data

SID SEASON NUMBER BASIN SUBBASIN NAME ISO_TIME NATURE LAT LON WMO_WIND WMO_PRES WMO_AGENCY TRACK_TYPE DIST2LAND LANDFALL IFLAG USA_AGENCY USA_ATCF_ID USA_LAT USA_LON USA_RECORD USA_STATUS USA_WIND USA_PRES USA_SSHS USA_R34_NE USA_R34_SE USA_R34_SW USA_R34_NW USA_R50_NE USA_R50_SE USA_R50_SW USA_R50_NW USA_R64_NE USA_R64_SE USA_R64_SW USA_R64_NW USA_POCI USA_ROCI USA_RMW USA_EYE TOKYO_LAT TOKYO_LON TOKYO_GRADE TOKYO_WIND TOKYO_PRES TOKYO_R50_DIR TOKYO_R50_LONG TOKYO_R50_SHORT TOKYO_R30_DIR TOKYO_R30_LONG TOKYO_R30_SHORT TOKYO_LAND CMA_LAT CMA_LON CMA_CAT CMA_WIND CMA_PRES HKO_LAT HKO_LON HKO_CAT HKO_WIND HKO_PRES NEWDELHI_LAT NEWDELHI_LON NEWDELHI_GRADE NEWDELHI_WIND NEWDELHI_PRES NEWDELHI_CI NEWDELHI_DP NEWDELHI_POCI REUNION_LAT REUNION_LON REUNION_TYPE REUNION_WIND REUNION_PRES REUNION_TNUM REUNION_CI REUNION_RMW REUNION_R34_NE REUNION_R34_SE REUNION_R34_SW REUNION_R34_NW REUNION_R50_NE REUNION_R50_SE REUNION_R50_SW REUNION_R50_NW REUNION_R64_NE REUNION_R64_SE REUNION_R64_SW REUNION_R64_NW BOM_LAT BOM_LON BOM_TYPE BOM_WIND BOM_PRES BOM_TNUM BOM_CI BOM_RMW BOM_R34_NE BOM_R34_SE BOM_R34_SW BOM_R34_NW BOM_R50_NE BOM_R50_SE BOM_R50_SW BOM_R50_NW BOM_R64_NE BOM_R64_SE BOM_R64_SW BOM_R64_NW BOM_ROCI BOM_POCI BOM_EYE BOM_POS_METHOD BOM_PRES_METHOD NADI_LAT NADI_LON NADI_CAT NADI_WIND NADI_PRES WELLINGTON_LAT WELLINGTON_LON WELLINGTON_WIND WELLINGTON_PRES DS824_LAT DS824_LON DS824_STAGE DS824_WIND DS824_PRES TD9636_LAT TD9636_LON TD9636_STAGE TD9636_WIND TD9636_PRES TD9635_LAT TD9635_LON TD9635_WIND TD9635_PRES TD9635_ROCI NEUMANN_LAT NEUMANN_LON NEUMANN_CLASS NEUMANN_WIND NEUMANN_PRES MLC_LAT MLC_LON MLC_CLASS MLC_WIND MLC_PRES USA_GUST BOM_GUST BOM_GUST_PER REUNION_GUST REUNION_GUST_PER USA_SEAHGT USA_SEARAD_NE USA_SEARAD_SE USA_SEARAD_SW USA_SEARAD_NW STORM_SPEED STORM_DIR
1929003N11091 1929 2 NI BB NOT_NAMED 1929-01-03 00:00:00 TS 10.6000 91.2000 main 677 677 _________O____ -1 10.6000 91.2000 TC 30 2 270
1929003N11091 1929 2 NI BB NOT_NAMED 1929-01-03 03:00:00 TS 10.6000 91.0933 main 683 683 _________PO___ -1 10.6000 91.0400 TC 30 10.6000 91.2000 1 2 270
1929003N11091 1929 2 NI BB NOT_NAMED 1929-01-03 06:00:00 TS 10.6000 90.9675 main 688 688 _________OP___ -1 10.6000 90.9000 TC 30 10.6001 91.0688 1 2 270
1929003N11091 1929 2 NI BB NOT_NAMED 1929-01-03 09:00:00 TS 10.6001 90.8557 main 694 694 _________PP___ -1 10.6000 90.7925 TC 30 10.6001 90.9400 1 2 270
1929003N11091 1929 2 NI BB NOT_NAMED 1929-01-03 12:00:00 TS 10.6001 90.7581 main 700 700 _________OP___ -1 10.6000 90.7000 TC 30 10.6001 90.8163 1 2 270
1929003N11091 1929 2 NI BB NOT_NAMED 1929-01-03 15:00:00 TS 10.6000 90.6575 main 706 706 _________PO___ -1 10.6000 90.6150 TC 30 10.6000 90.7000 1 2 270
1929003N11091 1929 2 NI BB NOT_NAMED 1929-01-03 18:00:00 TS 10.5999 90.5448 main 719 719 _________OP___ -1 10.6000 90.5000 TC 30 10.5998 90.5897 1 3 270
1929003N11091 1929 2 NI BB NOT_NAMED 1929-01-03 21:00:00 TS 10.5998 90.4025 main 725 725 _________PP___ -1 10.6000 90.3375 TC 30 10.5997 90.4675 1 3 270
1929003N11091 1929 2 NI BB NOT_NAMED 1929-01-04 00:00:00 TS 10.5999 90.2058 main 738 738 _________OP___ -1 10.6000 90.1000 TC 30 10.5998 90.3116 1 5 270
1929003N11091 1929 2 NI BB NOT_NAMED 1929-01-04 03:00:00 TS 10.6000 89.9362 main 759 759 _________PO___ -1 10.6000 89.7725 TC 30 10.6000 90.1000 1 6 270
1929003N11091 1929 2 NI BB NOT_NAMED 1929-01-04 06:00:00 TS 10.5980 89.6037 main 780 780 _________OP___ -1 10.6000 89.4000 TC 30 10.5961 89.8074 1 7 270
1929003N11091 1929 2 NI BB NOT_NAMED 1929-01-04 09:00:00 TS 10.5963 89.2550 main 802 802 _________PP___ -1 10.6000 89.0500 TC 30 10.5927 89.4599 1 7 270
1929003N11091 1929 2 NI BB NOT_NAMED 1929-01-04 12:00:00 TS 10.5965 88.8912 main 832 809 _________OP___ -1 10.6000 88.7000 TC 30 10.5929 89.0824 1 7 270
1929003N11091 1929 2 NI BB NOT_NAMED 1929-01-04 15:00:00 TS 10.5962 88.5250 main 809 779 _________PO___ -1 10.5925 88.3500 TC 31 10.6000 88.7000 1 7 271
1929003N11091 1929 2 NI BB NOT_NAMED 1929-01-04 18:00:00 TS 10.6069 88.1567 main 779 739 _________OP___ -1 10.6000 88.0000 TC 32 10.6139 88.3135 1 7 273
1929003N11091 1929 2 NI BB NOT_NAMED 1929-01-04 21:00:00 TS 10.6389 87.7763 main 739 714 _________PP___ -1 10.6425 87.6200 TC 33 10.6352 87.9326 1 7 276
1929003N11091 1929 2 NI BB NOT_NAMED 1929-01-05 00:00:00 TS 10.6819 87.4427 main 705 685 _________OP___ -1 10.7000 87.3000 TC 34 10.6639 87.5854 1 6 279
1929003N11091 1929 2 NI BB NOT_NAMED 1929-01-05 03:00:00 TS 10.7250 87.2062 main 685 675 _________PO___ -1 10.7499 87.1125 TC 36 10.7000 87.3000 2 4 284
1929003N11091 1929 2 NI BB NOT_NAMED 1929-01-05 06:00:00 TS 10.7691 87.0876 main 680 670 _________OP___ -1 10.8000 87.0000 TC 39 10.7382 87.1752 2 2 298
1929003N11091 1929 2 NI BB NOT_NAMED 1929-01-05 09:00:00 TS 10.8170 87.0311 main 670 665 _________PP___ -1 10.8498 86.9600 TC 42 10.7841 87.1022 2 2 299
1929003N11091 1929 2 NI BB NOT_NAMED 1929-01-05 12:00:00 TS 10.8690 86.9016 main 665 635 _________OP___ -1 10.9000 86.8000 TC 45 10.8380 87.0032 2 5 283
1929003N11091 1929 2 NI BB NOT_NAMED 1929-01-05 15:00:00 TS 10.9213 86.5550 main 635 592 _________PO___ -1 10.9427 86.3100 TC 45 10.9000 86.8000 3 9 277
1929003N11091 1929 2 NI BB NOT_NAMED 1929-01-05 18:00:00 TS 10.9781 86.0348 main 582 535 _________OP___ -1 11.0000 85.7000 TC 45 10.9563 86.3697 3 10 277
1929003N11091 1929 2 NI BB NOT_NAMED 1929-01-05 21:00:00 TS 11.0529 85.5049 main 541 495 _________PP___ -1 11.0849 85.1775 TC 45 11.0209 85.8324 3 11 279
1929003N11091 1929 2 NI BB NOT_NAMED 1929-01-06 00:00:00 TS 11.1500 84.9770 main 501 462 _________OP___ -1 11.2000 84.7000 TC 45 11.1000 85.2539 3 10 282
1929003N11091 1929 2 NI BB NOT_NAMED 1929-01-06 03:00:00 TS 11.2712 84.4925 main 462 431 _________PO___ -1 11.3424 84.2850 TC 45 11.2000 84.7000 3 9 287
1929003N11091 1929 2 NI BB NOT_NAMED 1929-01-06 06:00:00 TS 11.4140 84.0820 main 431 393 _________OP___ -1 11.5000 83.9000 TC 45 11.3280 84.2641 3 8 290
1929003N11091 1929 2 NI BB NOT_NAMED 1929-01-06 09:00:00 TS 11.5634 83.6812 main 393 348 _________PP___ -1 11.6499 83.5000 TC 45 11.4769 83.8625 3 8 291
1929003N11091 1929 2 NI BB NOT_NAMED 1929-01-06 12:00:00 TS 11.7187 83.2898 main 348 301 _________OP___ -1 11.8000 83.1000 TC 45 11.6374 83.4796 3 8 292
1929003N11091 1929 2 NI BB NOT_NAMED 1929-01-06 15:00:00 TS 11.8750 82.9000 main 301 266 _________PO___ -1 11.9499 82.7000 TC 45 11.8000 83.1000 3 8 292
1929003N11091 1929 2 NI BB NOT_NAMED 1929-01-06 18:00:00 TS 12.0183 82.5349 main 256 219 _________OP___ -1 12.1000 82.3000 TC 45 11.9570 82.7111 3 8 291
1929003N11091 1929 2 NI BB NOT_NAMED 1929-01-06 21:00:00 TS 12.1649 82.1477 main 209 175 _________PP___ -1 12.2501 81.9001 TC 45 12.1081 82.3128 3 8 291
1929003N11091 1929 2 NI BB NOT_NAMED 1929-01-07 00:00:00 TS 12.3035 81.7721 main 175 141 _________OP___ -1 12.4000 81.5000 TC 45 12.2553 81.9081 3 7 290
1929003N11091 1929 2 NI BB NOT_NAMED 1929-01-07 03:00:00 NR 12.4000 81.5000 main 141 __________O___ -1 TC 12.4000 81.5000 3 6 290

About IBTrACS Database

This database is a web-friendly format of International Best Track Archive for Climate Stewardship (IBTrACS), a global best track data archive curated by NOAA dating back to 1842.

Updated: 2021-12-08